sensor_id;sensor_type;location;lat;lon;timestamp;temperature;humidity
19106;DHT22;9685;54.338;18.672;2023-08-20T00:02:04;23.50;1.00
19106;DHT22;9685;54.338;18.672;2023-08-20T00:04:36;23.50;1.00
19106;DHT22;9685;54.338;18.672;2023-08-20T00:07:03;23.50;1.00
19106;DHT22;9685;54.338;18.672;2023-08-20T00:09:30;23.50;1.00
19106;DHT22;9685;54.338;18.672;2023-08-20T00:11:58;23.50;1.00
19106;DHT22;9685;54.338;18.672;2023-08-20T00:14:54;23.50;1.00
19106;DHT22;9685;54.338;18.672;2023-08-20T00:17:22;23.40;1.00
19106;DHT22;9685;54.338;18.672;2023-08-20T00:19:53;23.40;1.00
19106;DHT22;9685;54.338;18.672;2023-08-20T00:22:22;23.30;1.00
19106;DHT22;9685;54.338;18.672;2023-08-20T00:24:50;23.30;1.00
19106;DHT22;9685;54.338;18.672;2023-08-20T00:27:18;23.30;1.00
19106;DHT22;9685;54.338;18.672;2023-08-20T00:29:45;23.30;1.00
19106;DHT22;9685;54.338;18.672;2023-08-20T00:32:14;23.30;1.00
19106;DHT22;9685;54.338;18.672;2023-08-20T00:34:41;23.30;1.00
19106;DHT22;9685;54.338;18.672;2023-08-20T00:37:08;23.20;1.00
19106;DHT22;9685;54.338;18.672;2023-08-20T00:39:35;23.20;1.00
19106;DHT22;9685;54.338;18.672;2023-08-20T00:42:02;23.20;1.00
19106;DHT22;9685;54.338;18.672;2023-08-20T00:44:30;23.20;1.00
19106;DHT22;9685;54.338;18.672;2023-08-20T00:46:57;23.20;1.00
19106;DHT22;9685;54.338;18.672;2023-08-20T00:49:27;23.20;1.00
19106;DHT22;9685;54.338;18.672;2023-08-20T00:51:54;23.20;1.00
19106;DHT22;9685;54.338;18.672;2023-08-20T00:54:22;23.20;1.00
19106;DHT22;9685;54.338;18.672;2023-08-20T00:56:49;23.10;1.00
19106;DHT22;9685;54.338;18.672;2023-08-20T00:59:17;23.00;1.00
19106;DHT22;9685;54.338;18.672;2023-08-20T01:01:44;23.00;1.00
19106;DHT22;9685;54.338;18.672;2023-08-20T01:04:11;23.00;1.00
19106;DHT22;9685;54.338;18.672;2023-08-20T01:06:46;23.00;1.00
19106;DHT22;9685;54.338;18.672;2023-08-20T01:09:23;23.00;1.00
19106;DHT22;9685;54.338;18.672;2023-08-20T01:11:57;23.00;1.00
19106;DHT22;9685;54.338;18.672;2023-08-20T01:14:25;22.90;1.00
19106;DHT22;9685;54.338;18.672;2023-08-20T01:16:52;22.90;1.00
19106;DHT22;9685;54.338;18.672;2023-08-20T01:19:21;22.90;1.00
19106;DHT22;9685;54.338;18.672;2023-08-20T01:22:01;22.90;1.00
19106;DHT22;9685;54.338;18.672;2023-08-20T01:24:47;22.80;1.00
19106;DHT22;9685;54.338;18.672;2023-08-20T01:27:27;22.70;1.00
19106;DHT22;9685;54.338;18.672;2023-08-20T01:29:57;22.70;1.00
19106;DHT22;9685;54.338;18.672;2023-08-20T01:32:25;22.60;1.00
19106;DHT22;9685;54.338;18.672;2023-08-20T01:34:53;22.60;1.00
19106;DHT22;9685;54.338;18.672;2023-08-20T01:37:20;22.50;1.00
19106;DHT22;9685;54.338;18.672;2023-08-20T01:39:48;22.50;1.00
19106;DHT22;9685;54.338;18.672;2023-08-20T01:42:14;22.50;1.00
19106;DHT22;9685;54.338;18.672;2023-08-20T01:44:41;22.50;1.00
19106;DHT22;9685;54.338;18.672;2023-08-20T01:47:10;22.50;1.00
19106;DHT22;9685;54.338;18.672;2023-08-20T01:49:37;22.50;1.00
19106;DHT22;9685;54.338;18.672;2023-08-20T01:52:04;22.40;1.00
19106;DHT22;9685;54.338;18.672;2023-08-20T01:54:31;22.30;1.00
19106;DHT22;9685;54.338;18.672;2023-08-20T01:56:58;22.20;1.00
19106;DHT22;9685;54.338;18.672;2023-08-20T01:59:25;22.10;1.00
19106;DHT22;9685;54.338;18.672;2023-08-20T02:01:52;22.10;1.00
19106;DHT22;9685;54.338;18.672;2023-08-20T02:04:20;22.10;1.00
19106;DHT22;9685;54.338;18.672;2023-08-20T02:06:47;22.10;1.00
19106;DHT22;9685;54.338;18.672;2023-08-20T02:09:14;22.00;1.00
19106;DHT22;9685;54.338;18.672;2023-08-20T02:11:42;22.10;1.00
19106;DHT22;9685;54.338;18.672;2023-08-20T02:14:09;22.00;1.00
19106;DHT22;9685;54.338;18.672;2023-08-20T02:16:36;22.10;1.00
19106;DHT22;9685;54.338;18.672;2023-08-20T02:19:03;22.00;1.00
19106;DHT22;9685;54.338;18.672;2023-08-20T02:21:33;22.10;1.00
19106;DHT22;9685;54.338;18.672;2023-08-20T02:24:01;22.00;1.00
19106;DHT22;9685;54.338;18.672;2023-08-20T02:26:28;22.00;1.00
19106;DHT22;9685;54.338;18.672;2023-08-20T02:28:54;22.00;1.00
19106;DHT22;9685;54.338;18.672;2023-08-20T02:31:21;21.90;1.00
19106;DHT22;9685;54.338;18.672;2023-08-20T02:33:48;21.90;1.00
19106;DHT22;9685;54.338;18.672;2023-08-20T02:36:15;21.90;1.00
19106;DHT22;9685;54.338;18.672;2023-08-20T02:38:45;21.80;1.00
19106;DHT22;9685;54.338;18.672;2023-08-20T02:41:12;21.80;1.00
19106;DHT22;9685;54.338;18.672;2023-08-20T02:43:39;21.80;1.00
19106;DHT22;9685;54.338;18.672;2023-08-20T02:46:06;21.70;1.00
19106;DHT22;9685;54.338;18.672;2023-08-20T02:48:33;21.60;1.00
19106;DHT22;9685;54.338;18.672;2023-08-20T02:51:00;21.60;1.00
19106;DHT22;9685;54.338;18.672;2023-08-20T02:53:28;21.60;1.00
19106;DHT22;9685;54.338;18.672;2023-08-20T02:55:56;21.60;1.00
19106;DHT22;9685;54.338;18.672;2023-08-20T02:58:23;21.50;1.00
19106;DHT22;9685;54.338;18.672;2023-08-20T03:00:50;21.40;31.60
19106;DHT22;9685;54.338;18.672;2023-08-20T03:03:18;21.40;11.20
19106;DHT22;9685;54.338;18.672;2023-08-20T03:05:45;21.40;1.00
19106;DHT22;9685;54.338;18.672;2023-08-20T03:08:12;21.40;14.60
19106;DHT22;9685;54.338;18.672;2023-08-20T03:10:39;21.40;1.00
19106;DHT22;9685;54.338;18.672;2023-08-20T03:13:07;21.40;1.00
19106;DHT22;9685;54.338;18.672;2023-08-20T03:15:34;21.40;1.00
19106;DHT22;9685;54.338;18.672;2023-08-20T03:18:01;21.40;1.00
19106;DHT22;9685;54.338;18.672;2023-08-20T03:20:28;21.40;1.00
19106;DHT22;9685;54.338;18.672;2023-08-20T03:22:56;21.40;1.00
19106;DHT22;9685;54.338;18.672;2023-08-20T03:25:24;21.40;1.00
19106;DHT22;9685;54.338;18.672;2023-08-20T03:27:52;21.40;1.00
19106;DHT22;9685;54.338;18.672;2023-08-20T03:30:20;21.40;1.00
19106;DHT22;9685;54.338;18.672;2023-08-20T03:32:47;21.40;1.00
19106;DHT22;9685;54.338;18.672;2023-08-20T03:35:14;21.30;1.00
19106;DHT22;9685;54.338;18.672;2023-08-20T03:37:41;21.30;1.00
19106;DHT22;9685;54.338;18.672;2023-08-20T03:40:09;21.30;1.00
19106;DHT22;9685;54.338;18.672;2023-08-20T03:42:36;21.20;1.00
19106;DHT22;9685;54.338;18.672;2023-08-20T03:45:03;21.20;1.00
19106;DHT22;9685;54.338;18.672;2023-08-20T03:47:32;21.20;1.00
19106;DHT22;9685;54.338;18.672;2023-08-20T03:49:59;21.30;1.00
19106;DHT22;9685;54.338;18.672;2023-08-20T03:52:26;21.30;1.00
19106;DHT22;9685;54.338;18.672;2023-08-20T03:54:52;21.30;1.00
19106;DHT22;9685;54.338;18.672;2023-08-20T03:57:19;21.30;1.00
19106;DHT22;9685;54.338;18.672;2023-08-20T03:59:46;21.30;1.00
19106;DHT22;9685;54.338;18.672;2023-08-20T04:02:13;21.30;1.00
19106;DHT22;9685;54.338;18.672;2023-08-20T04:04:42;21.20;56.40
19106;DHT22;9685;54.338;18.672;2023-08-20T04:07:09;21.10;99.90
19106;DHT22;9685;54.338;18.672;2023-08-20T04:09:36;21.10;99.90
19106;DHT22;9685;54.338;18.672;2023-08-20T04:12:04;21.20;99.90
19106;DHT22;9685;54.338;18.672;2023-08-20T04:14:32;21.30;99.90
19106;DHT22;9685;54.338;18.672;2023-08-20T04:16:58;21.30;56.10
19106;DHT22;9685;54.338;18.672;2023-08-20T04:19:25;21.30;79.00
19106;DHT22;9685;54.338;18.672;2023-08-20T04:21:54;21.40;61.40
19106;DHT22;9685;54.338;18.672;2023-08-20T04:24:21;21.50;26.00
19106;DHT22;9685;54.338;18.672;2023-08-20T04:26:48;21.60;1.00
19106;DHT22;9685;54.338;18.672;2023-08-20T04:29:15;21.60;1.00
19106;DHT22;9685;54.338;18.672;2023-08-20T04:31:41;21.70;1.00
19106;DHT22;9685;54.338;18.672;2023-08-20T04:34:08;21.70;1.00
19106;DHT22;9685;54.338;18.672;2023-08-20T04:36:35;21.70;1.00
19106;DHT22;9685;54.338;18.672;2023-08-20T04:39:04;21.90;1.00
19106;DHT22;9685;54.338;18.672;2023-08-20T04:41:31;21.90;1.00
19106;DHT22;9685;54.338;18.672;2023-08-20T04:43:58;22.00;1.00
19106;DHT22;9685;54.338;18.672;2023-08-20T04:46:25;22.10;30.60
19106;DHT22;9685;54.338;18.672;2023-08-20T04:48:51;22.10;44.20
19106;DHT22;9685;54.338;18.672;2023-08-20T04:51:18;22.20;12.10
19106;DHT22;9685;54.338;18.672;2023-08-20T04:53:45;22.30;1.00
19106;DHT22;9685;54.338;18.672;2023-08-20T04:56:14;22.30;1.00
19106;DHT22;9685;54.338;18.672;2023-08-20T04:58:41;22.40;32.20
19106;DHT22;9685;54.338;18.672;2023-08-20T05:01:08;22.60;16.40
19106;DHT22;9685;54.338;18.672;2023-08-20T05:03:35;22.60;28.40
19106;DHT22;9685;54.338;18.672;2023-08-20T05:06:02;22.70;28.60
19106;DHT22;9685;54.338;18.672;2023-08-20T05:08:30;22.80;1.00
19106;DHT22;9685;54.338;18.672;2023-08-20T05:10:57;22.90;1.00
19106;DHT22;9685;54.338;18.672;2023-08-20T05:13:25;23.00;1.60
19106;DHT22;9685;54.338;18.672;2023-08-20T05:15:52;23.10;1.00
19106;DHT22;9685;54.338;18.672;2023-08-20T05:18:19;23.20;4.70
19106;DHT22;9685;54.338;18.672;2023-08-20T05:20:46;23.20;99.90
19106;DHT22;9685;54.338;18.672;2023-08-20T05:23:13;23.30;49.30
19106;DHT22;9685;54.338;18.672;2023-08-20T05:25:39;23.40;43.10
19106;DHT22;9685;54.338;18.672;2023-08-20T05:28:06;23.50;1.40
19106;DHT22;9685;54.338;18.672;2023-08-20T05:30:35;23.60;1.00
19106;DHT22;9685;54.338;18.672;2023-08-20T05:33:02;23.70;1.00
19106;DHT22;9685;54.338;18.672;2023-08-20T05:35:29;23.80;1.00
19106;DHT22;9685;54.338;18.672;2023-08-20T05:37:56;23.90;1.00
19106;DHT22;9685;54.338;18.672;2023-08-20T05:40:23;24.00;1.00
19106;DHT22;9685;54.338;18.672;2023-08-20T05:42:50;24.10;1.00
19106;DHT22;9685;54.338;18.672;2023-08-20T05:45:17;24.20;1.00
19106;DHT22;9685;54.338;18.672;2023-08-20T05:47:45;24.30;1.00
19106;DHT22;9685;54.338;18.672;2023-08-20T05:50:12;24.40;1.00
19106;DHT22;9685;54.338;18.672;2023-08-20T05:52:39;24.50;1.00
19106;DHT22;9685;54.338;18.672;2023-08-20T05:55:07;24.50;1.00
19106;DHT22;9685;54.338;18.672;2023-08-20T05:57:35;24.60;1.00
19106;DHT22;9685;54.338;18.672;2023-08-20T06:00:03;24.70;1.00
19106;DHT22;9685;54.338;18.672;2023-08-20T06:02:31;24.80;1.00
19106;DHT22;9685;54.338;18.672;2023-08-20T06:04:59;24.90;1.00
19106;DHT22;9685;54.338;18.672;2023-08-20T06:07:26;25.00;1.00
19106;DHT22;9685;54.338;18.672;2023-08-20T06:09:53;25.10;1.00
19106;DHT22;9685;54.338;18.672;2023-08-20T06:12:20;25.10;1.00
19106;DHT22;9685;54.338;18.672;2023-08-20T06:14:47;25.20;99.90
19106;DHT22;9685;54.338;18.672;2023-08-20T06:17:14;25.30;99.90
19106;DHT22;9685;54.338;18.672;2023-08-20T06:19:41;25.40;99.90
19106;DHT22;9685;54.338;18.672;2023-08-20T06:22:10;25.40;99.90
19106;DHT22;9685;54.338;18.672;2023-08-20T06:24:37;25.50;99.90
19106;DHT22;9685;54.338;18.672;2023-08-20T06:27:04;25.60;99.90
19106;DHT22;9685;54.338;18.672;2023-08-20T06:29:31;25.70;99.90
19106;DHT22;9685;54.338;18.672;2023-08-20T06:31:58;25.80;99.90
19106;DHT22;9685;54.338;18.672;2023-08-20T06:34:25;25.80;99.90
19106;DHT22;9685;54.338;18.672;2023-08-20T06:36:52;25.90;99.90
19106;DHT22;9685;54.338;18.672;2023-08-20T06:39:20;26.00;99.90
19106;DHT22;9685;54.338;18.672;2023-08-20T06:41:47;26.10;99.90
19106;DHT22;9685;54.338;18.672;2023-08-20T06:44:14;26.20;99.90
19106;DHT22;9685;54.338;18.672;2023-08-20T06:46:41;26.30;99.90
19106;DHT22;9685;54.338;18.672;2023-08-20T06:49:08;26.30;99.90
19106;DHT22;9685;54.338;18.672;2023-08-20T06:51:35;26.40;99.90
19106;DHT22;9685;54.338;18.672;2023-08-20T06:54:03;26.50;99.90
19106;DHT22;9685;54.338;18.672;2023-08-20T06:56:33;26.50;99.90
19106;DHT22;9685;54.338;18.672;2023-08-20T06:59:00;26.60;99.90
19106;DHT22;9685;54.338;18.672;2023-08-20T07:01:28;26.70;99.90
19106;DHT22;9685;54.338;18.672;2023-08-20T07:03:55;26.80;99.90
19106;DHT22;9685;54.338;18.672;2023-08-20T07:06:22;26.90;99.90
19106;DHT22;9685;54.338;18.672;2023-08-20T07:08:49;26.90;99.90
19106;DHT22;9685;54.338;18.672;2023-08-20T07:11:16;27.00;99.90
19106;DHT22;9685;54.338;18.672;2023-08-20T07:13:44;27.10;99.90
19106;DHT22;9685;54.338;18.672;2023-08-20T07:16:11;27.20;99.90
19106;DHT22;9685;54.338;18.672;2023-08-20T07:18:38;27.30;99.90
19106;DHT22;9685;54.338;18.672;2023-08-20T07:21:05;27.40;99.90
19106;DHT22;9685;54.338;18.672;2023-08-20T07:23:33;27.40;99.90
19106;DHT22;9685;54.338;18.672;2023-08-20T07:26:07;27.50;99.90
19106;DHT22;9685;54.338;18.672;2023-08-20T07:28:35;27.60;99.90
19106;DHT22;9685;54.338;18.672;2023-08-20T07:31:21;27.60;99.90
19106;DHT22;9685;54.338;18.672;2023-08-20T07:33:49;27.70;99.90
19106;DHT22;9685;54.338;18.672;2023-08-20T07:36:17;27.80;99.90
19106;DHT22;9685;54.338;18.672;2023-08-20T07:38:44;27.90;99.90
19106;DHT22;9685;54.338;18.672;2023-08-20T07:41:11;28.00;99.90
19106;DHT22;9685;54.338;18.672;2023-08-20T07:43:38;28.10;99.90
19106;DHT22;9685;54.338;18.672;2023-08-20T07:46:06;28.30;99.90
19106;DHT22;9685;54.338;18.672;2023-08-20T07:48:35;28.40;99.90
19106;DHT22;9685;54.338;18.672;2023-08-20T07:51:02;28.50;99.90
19106;DHT22;9685;54.338;18.672;2023-08-20T07:53:29;28.60;99.90
19106;DHT22;9685;54.338;18.672;2023-08-20T07:55:56;28.70;99.90
19106;DHT22;9685;54.338;18.672;2023-08-20T07:58:23;28.60;99.90
19106;DHT22;9685;54.338;18.672;2023-08-20T08:00:50;28.60;99.90
19106;DHT22;9685;54.338;18.672;2023-08-20T08:03:17;28.70;99.90
19106;DHT22;9685;54.338;18.672;2023-08-20T08:05:47;28.80;99.90
19106;DHT22;9685;54.338;18.672;2023-08-20T08:08:15;28.80;99.90
19106;DHT22;9685;54.338;18.672;2023-08-20T08:10:42;28.90;99.90
19106;DHT22;9685;54.338;18.672;2023-08-20T08:13:10;28.90;99.90
19106;DHT22;9685;54.338;18.672;2023-08-20T08:15:38;28.90;99.90
19106;DHT22;9685;54.338;18.672;2023-08-20T08:18:05;28.90;99.90
19106;DHT22;9685;54.338;18.672;2023-08-20T08:20:32;29.00;99.90
19106;DHT22;9685;54.338;18.672;2023-08-20T08:23:01;29.10;99.90
19106;DHT22;9685;54.338;18.672;2023-08-20T08:25:28;29.20;99.90
19106;DHT22;9685;54.338;18.672;2023-08-20T08:27:55;29.30;99.90
19106;DHT22;9685;54.338;18.672;2023-08-20T08:30:22;29.40;99.90
19106;DHT22;9685;54.338;18.672;2023-08-20T08:32:50;29.50;99.90
19106;DHT22;9685;54.338;18.672;2023-08-20T08:35:17;29.60;99.90
19106;DHT22;9685;54.338;18.672;2023-08-20T08:37:44;29.80;99.90
19106;DHT22;9685;54.338;18.672;2023-08-20T08:40:13;29.90;99.90
19106;DHT22;9685;54.338;18.672;2023-08-20T08:42:41;30.00;99.90
19106;DHT22;9685;54.338;18.672;2023-08-20T08:45:09;30.10;99.90
19106;DHT22;9685;54.338;18.672;2023-08-20T08:47:39;30.10;99.90
19106;DHT22;9685;54.338;18.672;2023-08-20T08:50:07;30.20;99.90
19106;DHT22;9685;54.338;18.672;2023-08-20T08:52:36;30.30;99.90
19106;DHT22;9685;54.338;18.672;2023-08-20T08:55:04;30.40;99.90
19106;DHT22;9685;54.338;18.672;2023-08-20T08:57:35;30.50;99.90
19106;DHT22;9685;54.338;18.672;2023-08-20T09:00:02;30.70;99.90
19106;DHT22;9685;54.338;18.672;2023-08-20T09:02:30;30.90;99.90
19106;DHT22;9685;54.338;18.672;2023-08-20T09:04:57;31.00;99.90
19106;DHT22;9685;54.338;18.672;2023-08-20T09:07:24;31.10;99.90
19106;DHT22;9685;54.338;18.672;2023-08-20T09:09:57;31.20;99.90
19106;DHT22;9685;54.338;18.672;2023-08-20T09:12:25;31.40;99.90
19106;DHT22;9685;54.338;18.672;2023-08-20T09:14:54;31.60;99.90
19106;DHT22;9685;54.338;18.672;2023-08-20T09:17:25;31.70;99.90
19106;DHT22;9685;54.338;18.672;2023-08-20T09:19:54;31.90;99.90
19106;DHT22;9685;54.338;18.672;2023-08-20T09:22:21;32.00;99.90
19106;DHT22;9685;54.338;18.672;2023-08-20T09:24:53;32.10;98.30
19106;DHT22;9685;54.338;18.672;2023-08-20T09:27:21;32.30;98.00
19106;DHT22;9685;54.338;18.672;2023-08-20T09:29:49;32.50;96.50
19106;DHT22;9685;54.338;18.672;2023-08-20T09:32:24;32.80;96.60
19106;DHT22;9685;54.338;18.672;2023-08-20T09:34:53;32.90;95.40
19106;DHT22;9685;54.338;18.672;2023-08-20T09:37:21;33.00;94.50
19106;DHT22;9685;54.338;18.672;2023-08-20T09:39:49;33.20;93.70
19106;DHT22;9685;54.338;18.672;2023-08-20T09:42:16;33.20;93.00
19106;DHT22;9685;54.338;18.672;2023-08-20T09:44:44;33.30;91.30
19106;DHT22;9685;54.338;18.672;2023-08-20T09:47:13;33.50;92.50
19106;DHT22;9685;54.338;18.672;2023-08-20T09:49:42;33.70;90.90
19106;DHT22;9685;54.338;18.672;2023-08-20T09:52:12;33.70;89.70
19106;DHT22;9685;54.338;18.672;2023-08-20T09:54:59;33.70;87.30
19106;DHT22;9685;54.338;18.672;2023-08-20T09:57:33;33.70;85.90
19106;DHT22;9685;54.338;18.672;2023-08-20T10:00:01;33.80;85.20
19106;DHT22;9685;54.338;18.672;2023-08-20T10:02:31;33.90;83.00
19106;DHT22;9685;54.338;18.672;2023-08-20T10:05:00;33.90;81.50
19106;DHT22;9685;54.338;18.672;2023-08-20T10:07:29;34.00;81.70
19106;DHT22;9685;54.338;18.672;2023-08-20T10:09:58;34.00;80.00
19106;DHT22;9685;54.338;18.672;2023-08-20T10:12:26;34.00;79.40
19106;DHT22;9685;54.338;18.672;2023-08-20T10:14:54;34.00;78.80
19106;DHT22;9685;54.338;18.672;2023-08-20T10:17:22;34.10;82.80
19106;DHT22;9685;54.338;18.672;2023-08-20T10:19:50;34.20;77.80
19106;DHT22;9685;54.338;18.672;2023-08-20T10:22:18;34.00;78.60
19106;DHT22;9685;54.338;18.672;2023-08-20T10:24:49;34.10;78.20
19106;DHT22;9685;54.338;18.672;2023-08-20T10:27:25;34.00;85.60
19106;DHT22;9685;54.338;18.672;2023-08-20T10:29:53;34.00;76.70
19106;DHT22;9685;54.338;18.672;2023-08-20T10:32:20;34.00;77.40
19106;DHT22;9685;54.338;18.672;2023-08-20T10:34:50;34.00;77.10
19106;DHT22;9685;54.338;18.672;2023-08-20T10:37:27;34.00;74.80
19106;DHT22;9685;54.338;18.672;2023-08-20T10:39:55;34.10;73.50
19106;DHT22;9685;54.338;18.672;2023-08-20T10:42:26;34.00;72.80
19106;DHT22;9685;54.338;18.672;2023-08-20T10:45:00;33.90;72.40
19106;DHT22;9685;54.338;18.672;2023-08-20T10:47:42;33.90;70.50
19106;DHT22;9685;54.338;18.672;2023-08-20T10:50:10;33.70;69.70
19106;DHT22;9685;54.338;18.672;2023-08-20T10:52:47;33.50;67.80
19106;DHT22;9685;54.338;18.672;2023-08-20T10:55:14;33.20;66.90
19106;DHT22;9685;54.338;18.672;2023-08-20T10:57:42;33.00;66.20
19106;DHT22;9685;54.338;18.672;2023-08-20T11:00:14;32.90;65.80
19106;DHT22;9685;54.338;18.672;2023-08-20T11:02:42;32.90;68.30
19106;DHT22;9685;54.338;18.672;2023-08-20T11:05:16;32.80;67.50
19106;DHT22;9685;54.338;18.672;2023-08-20T11:07:47;32.70;66.60
19106;DHT22;9685;54.338;18.672;2023-08-20T11:10:15;32.50;66.10
19106;DHT22;9685;54.338;18.672;2023-08-20T11:12:42;32.20;66.80
19106;DHT22;9685;54.338;18.672;2023-08-20T11:15:10;32.10;66.50
19106;DHT22;9685;54.338;18.672;2023-08-20T11:17:41;31.80;66.20
19106;DHT22;9685;54.338;18.672;2023-08-20T11:20:09;31.60;68.70
19106;DHT22;9685;54.338;18.672;2023-08-20T11:22:39;31.20;66.10
19106;DHT22;9685;54.338;18.672;2023-08-20T11:25:10;30.90;71.50
19106;DHT22;9685;54.338;18.672;2023-08-20T11:27:40;30.70;73.40
19106;DHT22;9685;54.338;18.672;2023-08-20T11:30:08;30.40;74.80
19106;DHT22;9685;54.338;18.672;2023-08-20T11:32:37;30.20;79.60
19106;DHT22;9685;54.338;18.672;2023-08-20T11:35:05;30.10;80.60
19106;DHT22;9685;54.338;18.672;2023-08-20T11:37:32;29.80;83.20
19106;DHT22;9685;54.338;18.672;2023-08-20T11:39:59;29.70;84.10
19106;DHT22;9685;54.338;18.672;2023-08-20T11:42:28;29.50;86.80
19106;DHT22;9685;54.338;18.672;2023-08-20T11:44:55;29.50;89.90
19106;DHT22;9685;54.338;18.672;2023-08-20T11:47:23;29.50;91.60
19106;DHT22;9685;54.338;18.672;2023-08-20T11:50:02;29.30;92.00
19106;DHT22;9685;54.338;18.672;2023-08-20T11:52:31;29.40;94.40
19106;DHT22;9685;54.338;18.672;2023-08-20T11:54:58;29.40;91.80
19106;DHT22;9685;54.338;18.672;2023-08-20T11:57:28;29.30;91.70
19106;DHT22;9685;54.338;18.672;2023-08-20T11:59:59;29.10;91.40
19106;DHT22;9685;54.338;18.672;2023-08-20T12:02:29;29.00;94.90
19106;DHT22;9685;54.338;18.672;2023-08-20T12:04:56;28.80;99.90
19106;DHT22;9685;54.338;18.672;2023-08-20T12:07:26;28.50;99.90
19106;DHT22;9685;54.338;18.672;2023-08-20T12:09:53;28.10;99.90
19106;DHT22;9685;54.338;18.672;2023-08-20T12:12:20;27.50;99.90
19106;DHT22;9685;54.338;18.672;2023-08-20T12:14:49;27.30;99.90
19106;DHT22;9685;54.338;18.672;2023-08-20T12:17:17;27.20;99.90
19106;DHT22;9685;54.338;18.672;2023-08-20T12:19:44;27.30;99.90
19106;DHT22;9685;54.338;18.672;2023-08-20T12:22:11;27.50;99.90
19106;DHT22;9685;54.338;18.672;2023-08-20T12:24:38;28.20;99.90
19106;DHT22;9685;54.338;18.672;2023-08-20T12:27:05;29.00;99.90
19106;DHT22;9685;54.338;18.672;2023-08-20T12:29:33;29.90;99.90
19106;DHT22;9685;54.338;18.672;2023-08-20T12:32:01;30.50;99.90
19106;DHT22;9685;54.338;18.672;2023-08-20T12:34:30;31.00;99.90
19106;DHT22;9685;54.338;18.672;2023-08-20T12:36:57;31.60;99.90
19106;DHT22;9685;54.338;18.672;2023-08-20T12:39:24;32.00;98.70
19106;DHT22;9685;54.338;18.672;2023-08-20T12:41:51;32.10;93.10
19106;DHT22;9685;54.338;18.672;2023-08-20T12:44:18;32.10;91.70
19106;DHT22;9685;54.338;18.672;2023-08-20T12:46:45;32.10;90.50
19106;DHT22;9685;54.338;18.672;2023-08-20T12:49:13;32.00;90.30
19106;DHT22;9685;54.338;18.672;2023-08-20T12:51:40;31.90;87.40
19106;DHT22;9685;54.338;18.672;2023-08-20T12:54:07;31.90;90.20
19106;DHT22;9685;54.338;18.672;2023-08-20T12:56:34;32.10;90.00
19106;DHT22;9685;54.338;18.672;2023-08-20T12:59:01;32.60;90.60
19106;DHT22;9685;54.338;18.672;2023-08-20T13:01:28;33.10;89.90
19106;DHT22;9685;54.338;18.672;2023-08-20T13:03:55;33.30;86.10
19106;DHT22;9685;54.338;18.672;2023-08-20T13:06:25;33.40;84.10
19106;DHT22;9685;54.338;18.672;2023-08-20T13:08:52;33.60;82.50
19106;DHT22;9685;54.338;18.672;2023-08-20T13:11:20;34.00;80.60
19106;DHT22;9685;54.338;18.672;2023-08-20T13:13:48;34.20;79.40
19106;DHT22;9685;54.338;18.672;2023-08-20T13:16:18;34.40;76.90
19106;DHT22;9685;54.338;18.672;2023-08-20T13:18:45;34.50;77.00
19106;DHT22;9685;54.338;18.672;2023-08-20T13:21:12;34.60;74.10
19106;DHT22;9685;54.338;18.672;2023-08-20T13:23:41;34.70;70.50
19106;DHT22;9685;54.338;18.672;2023-08-20T13:26:08;34.90;68.40
19106;DHT22;9685;54.338;18.672;2023-08-20T13:28:35;35.00;67.50
19106;DHT22;9685;54.338;18.672;2023-08-20T13:31:01;35.10;67.70
19106;DHT22;9685;54.338;18.672;2023-08-20T13:33:29;35.30;66.50
19106;DHT22;9685;54.338;18.672;2023-08-20T13:35:56;35.40;65.80
19106;DHT22;9685;54.338;18.672;2023-08-20T13:38:23;35.50;63.40
19106;DHT22;9685;54.338;18.672;2023-08-20T13:40:52;35.60;63.70
19106;DHT22;9685;54.338;18.672;2023-08-20T13:43:19;35.60;61.30
19106;DHT22;9685;54.338;18.672;2023-08-20T13:45:46;35.60;60.00
19106;DHT22;9685;54.338;18.672;2023-08-20T13:48:13;35.70;59.80
19106;DHT22;9685;54.338;18.672;2023-08-20T13:50:40;35.80;59.30
19106;DHT22;9685;54.338;18.672;2023-08-20T13:53:07;36.00;58.40
19106;DHT22;9685;54.338;18.672;2023-08-20T13:55:34;36.10;57.40
19106;DHT22;9685;54.338;18.672;2023-08-20T13:58:04;36.20;57.60
19106;DHT22;9685;54.338;18.672;2023-08-20T14:00:31;36.30;81.70
19106;DHT22;9685;54.338;18.672;2023-08-20T14:02:58;36.50;81.90
19106;DHT22;9685;54.338;18.672;2023-08-20T14:05:24;36.60;56.00
19106;DHT22;9685;54.338;18.672;2023-08-20T14:07:52;36.50;55.00
19106;DHT22;9685;54.338;18.672;2023-08-20T14:10:18;36.20;52.90
19106;DHT22;9685;54.338;18.672;2023-08-20T14:12:45;36.30;52.90
19106;DHT22;9685;54.338;18.672;2023-08-20T14:15:14;36.10;51.40
19106;DHT22;9685;54.338;18.672;2023-08-20T14:17:41;36.00;52.20
19106;DHT22;9685;54.338;18.672;2023-08-20T14:20:08;35.80;50.90
19106;DHT22;9685;54.338;18.672;2023-08-20T14:22:36;35.90;50.10
19106;DHT22;9685;54.338;18.672;2023-08-20T14:25:04;36.00;49.60
19106;DHT22;9685;54.338;18.672;2023-08-20T14:27:31;35.90;49.50
19106;DHT22;9685;54.338;18.672;2023-08-20T14:29:58;35.60;48.40
19106;DHT22;9685;54.338;18.672;2023-08-20T14:32:27;35.60;47.90
19106;DHT22;9685;54.338;18.672;2023-08-20T14:34:54;35.60;46.90
19106;DHT22;9685;54.338;18.672;2023-08-20T14:37:21;35.40;46.80
19106;DHT22;9685;54.338;18.672;2023-08-20T14:39:49;35.50;45.80
19106;DHT22;9685;54.338;18.672;2023-08-20T14:42:16;35.80;46.50
19106;DHT22;9685;54.338;18.672;2023-08-20T14:44:43;35.70;46.20
19106;DHT22;9685;54.338;18.672;2023-08-20T14:47:11;35.70;45.90
19106;DHT22;9685;54.338;18.672;2023-08-20T14:49:39;35.60;44.00
19106;DHT22;9685;54.338;18.672;2023-08-20T14:52:06;35.30;44.10
19106;DHT22;9685;54.338;18.672;2023-08-20T14:54:33;35.20;43.30
19106;DHT22;9685;54.338;18.672;2023-08-20T14:57:00;35.10;42.80
19106;DHT22;9685;54.338;18.672;2023-08-20T14:59:28;35.20;43.80
19106;DHT22;9685;54.338;18.672;2023-08-20T15:01:55;35.30;43.40
19106;DHT22;9685;54.338;18.672;2023-08-20T15:04:22;35.30;43.40
19106;DHT22;9685;54.338;18.672;2023-08-20T15:06:50;35.00;42.50
19106;DHT22;9685;54.338;18.672;2023-08-20T15:09:17;35.00;42.30
19106;DHT22;9685;54.338;18.672;2023-08-20T15:11:46;34.90;41.90
19106;DHT22;9685;54.338;18.672;2023-08-20T15:14:13;34.50;40.60
19106;DHT22;9685;54.338;18.672;2023-08-20T15:16:39;34.50;60.60
19106;DHT22;9685;54.338;18.672;2023-08-20T15:19:08;34.40;39.30
19106;DHT22;9685;54.338;18.672;2023-08-20T15:21:34;34.00;38.20
19106;DHT22;9685;54.338;18.672;2023-08-20T15:24:03;33.90;37.70
19106;DHT22;9685;54.338;18.672;2023-08-20T15:26:30;33.60;38.20
19106;DHT22;9685;54.338;18.672;2023-08-20T15:28:57;33.70;37.00
19106;DHT22;9685;54.338;18.672;2023-08-20T15:31:24;33.70;38.40
19106;DHT22;9685;54.338;18.672;2023-08-20T15:33:53;33.70;37.70
19106;DHT22;9685;54.338;18.672;2023-08-20T15:36:20;33.70;36.80
19106;DHT22;9685;54.338;18.672;2023-08-20T15:38:47;33.60;37.20
19106;DHT22;9685;54.338;18.672;2023-08-20T15:41:15;33.20;35.30